sensor_id;sensor_type;location;lat;lon;timestamp;P1;durP1;ratioP1;P2;durP2;ratioP2
55216;SDS011;41086;46.736;15.666;2023-02-22T00:04:12;18.92;;;8.50;;
55216;SDS011;41086;46.736;15.666;2023-02-22T00:06:41;18.10;;;9.50;;
55216;SDS011;41086;46.736;15.666;2023-02-22T00:09:08;15.50;;;8.68;;
55216;SDS011;41086;46.736;15.666;2023-02-22T00:11:35;17.75;;;9.07;;
55216;SDS011;41086;46.736;15.666;2023-02-22T00:14:04;16.58;;;8.90;;
55216;SDS011;41086;46.736;15.666;2023-02-22T00:16:30;19.60;;;10.10;;
55216;SDS011;41086;46.736;15.666;2023-02-22T00:18:57;18.25;;;8.65;;
55216;SDS011;41086;46.736;15.666;2023-02-22T00:21:24;18.65;;;9.50;;
55216;SDS011;41086;46.736;15.666;2023-02-22T00:23:51;23.85;;;12.07;;
55216;SDS011;41086;46.736;15.666;2023-02-22T00:26:20;17.50;;;9.75;;
55216;SDS011;41086;46.736;15.666;2023-02-22T00:28:52;29.75;;;11.95;;
55216;SDS011;41086;46.736;15.666;2023-02-22T00:31:19;23.25;;;11.85;;
55216;SDS011;41086;46.736;15.666;2023-02-22T00:33:47;24.55;;;12.43;;
55216;SDS011;41086;46.736;15.666;2023-02-22T00:36:15;17.75;;;9.25;;
55216;SDS011;41086;46.736;15.666;2023-02-22T00:38:42;21.15;;;10.82;;
55216;SDS011;41086;46.736;15.666;2023-02-22T00:41:11;21.58;;;10.52;;
55216;SDS011;41086;46.736;15.666;2023-02-22T00:43:37;32.13;;;13.48;;
55216;SDS011;41086;46.736;15.666;2023-02-22T00:46:04;23.50;;;11.48;;
55216;SDS011;41086;46.736;15.666;2023-02-22T00:48:31;24.30;;;12.60;;
55216;SDS011;41086;46.736;15.666;2023-02-22T00:50:58;23.13;;;11.85;;
55216;SDS011;41086;46.736;15.666;2023-02-22T00:53:25;17.38;;;10.38;;
55216;SDS011;41086;46.736;15.666;2023-02-22T00:55:52;18.90;;;10.45;;
55216;SDS011;41086;46.736;15.666;2023-02-22T01:00:46;18.27;;;9.90;;
55216;SDS011;41086;46.736;15.666;2023-02-22T01:03:14;18.08;;;9.07;;
55216;SDS011;41086;46.736;15.666;2023-02-22T01:05:43;22.10;;;11.13;;
55216;SDS011;41086;46.736;15.666;2023-02-22T01:08:11;20.83;;;12.25;;
55216;SDS011;41086;46.736;15.666;2023-02-22T01:10:40;21.55;;;10.68;;
55216;SDS011;41086;46.736;15.666;2023-02-22T01:13:07;19.00;;;10.38;;
55216;SDS011;41086;46.736;15.666;2023-02-22T01:15:38;23.52;;;9.98;;
55216;SDS011;41086;46.736;15.666;2023-02-22T01:18:07;25.88;;;10.05;;
55216;SDS011;41086;46.736;15.666;2023-02-22T01:20:34;20.85;;;9.93;;
55216;SDS011;41086;46.736;15.666;2023-02-22T01:23:02;17.52;;;9.60;;
55216;SDS011;41086;46.736;15.666;2023-02-22T01:25:32;16.40;;;8.40;;
55216;SDS011;41086;46.736;15.666;2023-02-22T01:28:00;23.17;;;9.30;;
55216;SDS011;41086;46.736;15.666;2023-02-22T01:30:29;15.63;;;7.47;;
55216;SDS011;41086;46.736;15.666;2023-02-22T01:32:58;21.40;;;8.38;;
55216;SDS011;41086;46.736;15.666;2023-02-22T01:35:34;20.85;;;9.45;;
55216;SDS011;41086;46.736;15.666;2023-02-22T01:38:02;20.13;;;10.50;;
55216;SDS011;41086;46.736;15.666;2023-02-22T01:40:31;17.98;;;9.52;;
55216;SDS011;41086;46.736;15.666;2023-02-22T01:43:03;20.40;;;9.25;;
55216;SDS011;41086;46.736;15.666;2023-02-22T01:45:44;24.85;;;10.82;;
55216;SDS011;41086;46.736;15.666;2023-02-22T01:48:18;21.58;;;10.25;;
55216;SDS011;41086;46.736;15.666;2023-02-22T01:53:52;21.67;;;8.85;;
55216;SDS011;41086;46.736;15.666;2023-02-22T01:56:24;16.73;;;8.38;;
55216;SDS011;41086;46.736;15.666;2023-02-22T01:58:58;22.95;;;9.45;;
55216;SDS011;41086;46.736;15.666;2023-02-22T02:01:34;21.15;;;8.95;;
55216;SDS011;41086;46.736;15.666;2023-02-22T02:04:04;14.50;;;8.07;;
55216;SDS011;41086;46.736;15.666;2023-02-22T02:06:35;20.70;;;10.00;;
55216;SDS011;41086;46.736;15.666;2023-02-22T02:11:46;17.98;;;9.68;;
55216;SDS011;41086;46.736;15.666;2023-02-22T02:14:14;19.90;;;7.25;;
55216;SDS011;41086;46.736;15.666;2023-02-22T02:16:46;24.00;;;11.13;;
55216;SDS011;41086;46.736;15.666;2023-02-22T02:19:25;22.10;;;9.38;;
55216;SDS011;41086;46.736;15.666;2023-02-22T02:38:33;14.75;;;5.97;;
55216;SDS011;41086;46.736;15.666;2023-02-22T02:41:22;19.60;;;9.88;;
55216;SDS011;41086;46.736;15.666;2023-02-22T02:43:58;31.55;;;11.13;;
55216;SDS011;41086;46.736;15.666;2023-02-22T02:46:34;16.10;;;8.95;;
55216;SDS011;41086;46.736;15.666;2023-02-22T02:49:12;19.30;;;9.52;;
55216;SDS011;41086;46.736;15.666;2023-02-22T02:51:46;22.95;;;13.35;;
55216;SDS011;41086;46.736;15.666;2023-02-22T02:54:17;23.08;;;11.90;;
55216;SDS011;41086;46.736;15.666;2023-02-22T02:56:45;18.48;;;8.55;;
55216;SDS011;41086;46.736;15.666;2023-02-22T02:59:29;19.23;;;6.88;;
55216;SDS011;41086;46.736;15.666;2023-02-22T03:16:35;18.95;;;10.43;;
55216;SDS011;41086;46.736;15.666;2023-02-22T03:22:11;16.90;;;9.02;;
55216;SDS011;41086;46.736;15.666;2023-02-22T03:24:44;13.85;;;7.53;;
55216;SDS011;41086;46.736;15.666;2023-02-22T03:27:22;18.33;;;8.73;;
55216;SDS011;41086;46.736;15.666;2023-02-22T03:29:57;17.10;;;8.20;;
55216;SDS011;41086;46.736;15.666;2023-02-22T03:32:31;21.30;;;10.80;;
55216;SDS011;41086;46.736;15.666;2023-02-22T03:35:27;23.00;;;10.13;;
55216;SDS011;41086;46.736;15.666;2023-02-22T03:37:56;25.20;;;10.15;;
55216;SDS011;41086;46.736;15.666;2023-02-22T03:40:29;25.52;;;12.13;;
55216;SDS011;41086;46.736;15.666;2023-02-22T03:43:07;24.60;;;11.82;;
55216;SDS011;41086;46.736;15.666;2023-02-22T03:45:42;21.70;;;11.13;;
55216;SDS011;41086;46.736;15.666;2023-02-22T03:48:18;24.65;;;11.63;;
55216;SDS011;41086;46.736;15.666;2023-02-22T03:50:59;21.95;;;10.50;;
55216;SDS011;41086;46.736;15.666;2023-02-22T03:53:31;18.83;;;9.85;;
55216;SDS011;41086;46.736;15.666;2023-02-22T03:56:00;20.50;;;9.70;;
55216;SDS011;41086;46.736;15.666;2023-02-22T03:58:32;23.63;;;10.35;;
55216;SDS011;41086;46.736;15.666;2023-02-22T04:01:02;20.75;;;10.73;;
55216;SDS011;41086;46.736;15.666;2023-02-22T04:03:29;20.30;;;9.50;;
55216;SDS011;41086;46.736;15.666;2023-02-22T04:05:56;21.90;;;10.20;;
55216;SDS011;41086;46.736;15.666;2023-02-22T04:08:23;26.42;;;10.95;;
55216;SDS011;41086;46.736;15.666;2023-02-22T04:10:50;16.30;;;9.02;;
55216;SDS011;41086;46.736;15.666;2023-02-22T04:13:20;15.77;;;7.22;;
55216;SDS011;41086;46.736;15.666;2023-02-22T04:15:50;22.85;;;10.05;;
55216;SDS011;41086;46.736;15.666;2023-02-22T04:18:16;19.75;;;10.43;;
55216;SDS011;41086;46.736;15.666;2023-02-22T04:20:45;18.88;;;9.20;;
55216;SDS011;41086;46.736;15.666;2023-02-22T04:23:20;16.25;;;8.80;;
55216;SDS011;41086;46.736;15.666;2023-02-22T04:25:48;20.15;;;10.23;;
55216;SDS011;41086;46.736;15.666;2023-02-22T04:28:16;20.70;;;8.68;;
55216;SDS011;41086;46.736;15.666;2023-02-22T04:30:49;18.20;;;10.65;;
55216;SDS011;41086;46.736;15.666;2023-02-22T04:33:17;16.30;;;7.47;;
55216;SDS011;41086;46.736;15.666;2023-02-22T04:35:45;18.75;;;9.95;;
55216;SDS011;41086;46.736;15.666;2023-02-22T04:38:12;23.17;;;10.75;;
55216;SDS011;41086;46.736;15.666;2023-02-22T04:40:39;19.25;;;10.00;;
55216;SDS011;41086;46.736;15.666;2023-02-22T04:45:33;20.85;;;9.07;;
55216;SDS011;41086;46.736;15.666;2023-02-22T04:48:01;17.23;;;9.25;;
55216;SDS011;41086;46.736;15.666;2023-02-22T04:50:28;17.60;;;8.27;;
55216;SDS011;41086;46.736;15.666;2023-02-22T04:52:55;24.50;;;11.70;;
55216;SDS011;41086;46.736;15.666;2023-02-22T04:55:22;22.48;;;10.82;;
55216;SDS011;41086;46.736;15.666;2023-02-22T04:57:49;24.20;;;11.23;;
55216;SDS011;41086;46.736;15.666;2023-02-22T05:00:16;22.20;;;10.57;;
55216;SDS011;41086;46.736;15.666;2023-02-22T05:02:44;21.08;;;8.70;;
55216;SDS011;41086;46.736;15.666;2023-02-22T05:05:12;23.20;;;10.98;;
55216;SDS011;41086;46.736;15.666;2023-02-22T05:07:40;20.27;;;9.10;;
55216;SDS011;41086;46.736;15.666;2023-02-22T05:10:08;25.30;;;11.52;;
55216;SDS011;41086;46.736;15.666;2023-02-22T05:12:35;21.77;;;10.98;;
55216;SDS011;41086;46.736;15.666;2023-02-22T05:15:03;31.95;;;12.70;;
55216;SDS011;41086;46.736;15.666;2023-02-22T05:17:32;20.40;;;11.68;;
55216;SDS011;41086;46.736;15.666;2023-02-22T05:20:00;24.73;;;10.75;;
55216;SDS011;41086;46.736;15.666;2023-02-22T05:22:28;24.30;;;12.82;;
55216;SDS011;41086;46.736;15.666;2023-02-22T05:24:55;24.13;;;11.25;;
55216;SDS011;41086;46.736;15.666;2023-02-22T05:27:22;27.10;;;12.57;;
55216;SDS011;41086;46.736;15.666;2023-02-22T05:29:49;27.98;;;13.15;;
55216;SDS011;41086;46.736;15.666;2023-02-22T05:32:15;24.10;;;11.35;;
55216;SDS011;41086;46.736;15.666;2023-02-22T05:34:42;25.88;;;13.05;;
55216;SDS011;41086;46.736;15.666;2023-02-22T05:37:09;22.60;;;11.48;;
55216;SDS011;41086;46.736;15.666;2023-02-22T05:39:36;23.65;;;13.15;;
55216;SDS011;41086;46.736;15.666;2023-02-22T05:42:02;21.55;;;11.85;;
55216;SDS011;41086;46.736;15.666;2023-02-22T05:44:29;22.58;;;11.82;;
55216;SDS011;41086;46.736;15.666;2023-02-22T05:46:56;23.05;;;12.57;;
55216;SDS011;41086;46.736;15.666;2023-02-22T05:49:23;28.55;;;14.18;;
55216;SDS011;41086;46.736;15.666;2023-02-22T05:51:49;26.13;;;12.48;;
55216;SDS011;41086;46.736;15.666;2023-02-22T05:54:17;21.95;;;11.95;;
55216;SDS011;41086;46.736;15.666;2023-02-22T05:56:43;23.80;;;11.23;;
55216;SDS011;41086;46.736;15.666;2023-02-22T05:59:10;20.40;;;10.88;;
55216;SDS011;41086;46.736;15.666;2023-02-22T06:01:37;18.95;;;9.98;;
55216;SDS011;41086;46.736;15.666;2023-02-22T06:04:04;17.92;;;9.65;;
55216;SDS011;41086;46.736;15.666;2023-02-22T06:06:31;25.38;;;10.65;;
55216;SDS011;41086;46.736;15.666;2023-02-22T06:08:58;17.90;;;11.05;;
55216;SDS011;41086;46.736;15.666;2023-02-22T06:11:25;18.15;;;8.32;;
55216;SDS011;41086;46.736;15.666;2023-02-22T06:13:52;19.45;;;9.43;;
55216;SDS011;41086;46.736;15.666;2023-02-22T06:16:19;27.65;;;10.77;;
55216;SDS011;41086;46.736;15.666;2023-02-22T06:18:48;38.78;;;11.73;;
55216;SDS011;41086;46.736;15.666;2023-02-22T06:21:16;28.90;;;11.13;;
55216;SDS011;41086;46.736;15.666;2023-02-22T06:23:43;22.60;;;11.52;;
55216;SDS011;41086;46.736;15.666;2023-02-22T06:26:10;25.17;;;12.13;;
55216;SDS011;41086;46.736;15.666;2023-02-22T06:28:37;22.67;;;11.10;;
55216;SDS011;41086;46.736;15.666;2023-02-22T06:31:03;17.85;;;9.88;;
55216;SDS011;41086;46.736;15.666;2023-02-22T06:33:30;17.52;;;10.55;;
55216;SDS011;41086;46.736;15.666;2023-02-22T06:35:57;16.60;;;9.70;;
55216;SDS011;41086;46.736;15.666;2023-02-22T06:38:24;23.42;;;10.70;;
55216;SDS011;41086;46.736;15.666;2023-02-22T06:40:53;21.02;;;10.02;;
55216;SDS011;41086;46.736;15.666;2023-02-22T06:43:21;18.75;;;10.10;;
55216;SDS011;41086;46.736;15.666;2023-02-22T06:45:49;26.95;;;11.80;;
55216;SDS011;41086;46.736;15.666;2023-02-22T06:48:16;30.17;;;12.65;;
55216;SDS011;41086;46.736;15.666;2023-02-22T06:50:43;21.38;;;10.45;;
55216;SDS011;41086;46.736;15.666;2023-02-22T06:53:10;19.73;;;10.20;;
55216;SDS011;41086;46.736;15.666;2023-02-22T06:55:37;22.05;;;12.30;;
55216;SDS011;41086;46.736;15.666;2023-02-22T06:58:04;21.02;;;11.52;;
55216;SDS011;41086;46.736;15.666;2023-02-22T07:00:31;17.15;;;11.45;;
55216;SDS011;41086;46.736;15.666;2023-02-22T07:02:59;24.45;;;13.43;;
55216;SDS011;41086;46.736;15.666;2023-02-22T07:05:26;21.38;;;12.05;;
55216;SDS011;41086;46.736;15.666;2023-02-22T07:07:54;24.88;;;12.10;;
55216;SDS011;41086;46.736;15.666;2023-02-22T07:10:28;25.02;;;13.77;;
55216;SDS011;41086;46.736;15.666;2023-02-22T07:12:56;19.08;;;12.27;;
55216;SDS011;41086;46.736;15.666;2023-02-22T07:15:24;27.73;;;12.25;;
55216;SDS011;41086;46.736;15.666;2023-02-22T07:17:53;19.17;;;10.40;;
55216;SDS011;41086;46.736;15.666;2023-02-22T07:20:21;25.02;;;11.48;;
55216;SDS011;41086;46.736;15.666;2023-02-22T07:22:48;32.80;;;11.00;;
55216;SDS011;41086;46.736;15.666;2023-02-22T07:25:17;20.92;;;10.02;;
55216;SDS011;41086;46.736;15.666;2023-02-22T07:27:45;21.25;;;10.63;;
55216;SDS011;41086;46.736;15.666;2023-02-22T07:32:45;18.52;;;9.65;;
55216;SDS011;41086;46.736;15.666;2023-02-22T07:37:39;18.77;;;9.30;;
55216;SDS011;41086;46.736;15.666;2023-02-22T07:40:06;24.02;;;11.27;;
55216;SDS011;41086;46.736;15.666;2023-02-22T07:45:15;18.92;;;11.02;;
55216;SDS011;41086;46.736;15.666;2023-02-22T07:47:42;19.23;;;9.70;;
55216;SDS011;41086;46.736;15.666;2023-02-22T07:50:09;20.38;;;10.82;;
55216;SDS011;41086;46.736;15.666;2023-02-22T07:52:36;17.83;;;10.23;;
55216;SDS011;41086;46.736;15.666;2023-02-22T07:55:02;25.52;;;10.43;;
55216;SDS011;41086;46.736;15.666;2023-02-22T07:57:29;23.20;;;10.43;;
55216;SDS011;41086;46.736;15.666;2023-02-22T07:59:56;18.30;;;9.63;;
55216;SDS011;41086;46.736;15.666;2023-02-22T08:02:24;20.55;;;10.80;;
55216;SDS011;41086;46.736;15.666;2023-02-22T08:04:51;20.77;;;8.98;;
55216;SDS011;41086;46.736;15.666;2023-02-22T08:07:18;19.67;;;8.15;;
55216;SDS011;41086;46.736;15.666;2023-02-22T08:09:45;18.13;;;7.28;;
55216;SDS011;41086;46.736;15.666;2023-02-22T08:12:12;16.73;;;8.82;;
55216;SDS011;41086;46.736;15.666;2023-02-22T08:14:38;13.60;;;7.35;;
55216;SDS011;41086;46.736;15.666;2023-02-22T08:17:05;14.15;;;7.93;;
55216;SDS011;41086;46.736;15.666;2023-02-22T08:19:34;19.02;;;8.80;;
55216;SDS011;41086;46.736;15.666;2023-02-22T08:22:00;20.33;;;8.05;;
55216;SDS011;41086;46.736;15.666;2023-02-22T08:24:27;13.93;;;7.00;;
55216;SDS011;41086;46.736;15.666;2023-02-22T08:26:54;13.98;;;5.65;;
55216;SDS011;41086;46.736;15.666;2023-02-22T08:29:21;12.75;;;7.05;;
55216;SDS011;41086;46.736;15.666;2023-02-22T08:31:49;15.18;;;5.63;;
55216;SDS011;41086;46.736;15.666;2023-02-22T08:34:19;6.88;;;4.13;;
55216;SDS011;41086;46.736;15.666;2023-02-22T08:36:46;9.88;;;5.93;;
55216;SDS011;41086;46.736;15.666;2023-02-22T08:39:13;11.52;;;6.15;;
55216;SDS011;41086;46.736;15.666;2023-02-22T08:41:39;14.88;;;4.00;;
55216;SDS011;41086;46.736;15.666;2023-02-22T08:44:06;9.90;;;3.85;;
55216;SDS011;41086;46.736;15.666;2023-02-22T08:46:33;14.85;;;5.70;;
55216;SDS011;41086;46.736;15.666;2023-02-22T08:49:00;14.20;;;4.43;;
55216;SDS011;41086;46.736;15.666;2023-02-22T08:51:28;10.80;;;5.35;;
55216;SDS011;41086;46.736;15.666;2023-02-22T08:53:55;11.75;;;5.80;;
55216;SDS011;41086;46.736;15.666;2023-02-22T08:56:21;7.95;;;4.70;;
55216;SDS011;41086;46.736;15.666;2023-02-22T08:58:48;9.95;;;5.22;;
55216;SDS011;41086;46.736;15.666;2023-02-22T09:01:15;21.50;;;5.28;;
55216;SDS011;41086;46.736;15.666;2023-02-22T09:03:56;15.40;;;5.47;;
55216;SDS011;41086;46.736;15.666;2023-02-22T09:06:23;10.50;;;5.32;;
55216;SDS011;41086;46.736;15.666;2023-02-22T09:08:50;9.85;;;5.57;;
55216;SDS011;41086;46.736;15.666;2023-02-22T09:11:17;10.35;;;5.00;;
55216;SDS011;41086;46.736;15.666;2023-02-22T09:13:44;9.10;;;4.80;;
55216;SDS011;41086;46.736;15.666;2023-02-22T09:16:10;12.75;;;5.40;;
55216;SDS011;41086;46.736;15.666;2023-02-22T09:18:37;9.40;;;5.00;;
55216;SDS011;41086;46.736;15.666;2023-02-22T09:21:10;8.60;;;4.75;;
55216;SDS011;41086;46.736;15.666;2023-02-22T09:23:37;4.20;;;2.58;;
55216;SDS011;41086;46.736;15.666;2023-02-22T09:26:06;8.20;;;3.63;;
55216;SDS011;41086;46.736;15.666;2023-02-22T09:28:34;8.63;;;4.63;;
55216;SDS011;41086;46.736;15.666;2023-02-22T09:31:01;5.53;;;3.65;;
55216;SDS011;41086;46.736;15.666;2023-02-22T09:33:28;7.20;;;4.10;;
55216;SDS011;41086;46.736;15.666;2023-02-22T09:35:54;7.30;;;3.95;;
55216;SDS011;41086;46.736;15.666;2023-02-22T09:38:22;7.85;;;4.22;;
55216;SDS011;41086;46.736;15.666;2023-02-22T09:40:51;10.52;;;4.68;;
55216;SDS011;41086;46.736;15.666;2023-02-22T09:43:24;10.63;;;5.15;;
55216;SDS011;41086;46.736;15.666;2023-02-22T09:46:07;9.05;;;5.20;;
55216;SDS011;41086;46.736;15.666;2023-02-22T09:48:47;10.73;;;5.88;;
55216;SDS011;41086;46.736;15.666;2023-02-22T09:51:24;10.07;;;4.90;;
55216;SDS011;41086;46.736;15.666;2023-02-22T09:54:01;15.27;;;5.90;;
55216;SDS011;41086;46.736;15.666;2023-02-22T09:56:31;11.23;;;5.40;;
55216;SDS011;41086;46.736;15.666;2023-02-22T09:59:00;10.23;;;5.20;;
55216;SDS011;41086;46.736;15.666;2023-02-22T10:01:34;11.82;;;6.10;;
55216;SDS011;41086;46.736;15.666;2023-02-22T10:04:14;12.95;;;6.45;;
55216;SDS011;41086;46.736;15.666;2023-02-22T10:09:22;8.30;;;5.63;;
55216;SDS011;41086;46.736;15.666;2023-02-22T10:11:57;13.38;;;5.85;;
55216;SDS011;41086;46.736;15.666;2023-02-22T10:14:31;9.90;;;5.63;;
55216;SDS011;41086;46.736;15.666;2023-02-22T10:25:33;10.15;;;5.82;;
55216;SDS011;41086;46.736;15.666;2023-02-22T10:28:16;13.55;;;7.15;;
55216;SDS011;41086;46.736;15.666;2023-02-22T10:31:04;13.63;;;7.53;;
55216;SDS011;41086;46.736;15.666;2023-02-22T10:33:38;15.38;;;7.53;;
55216;SDS011;41086;46.736;15.666;2023-02-22T10:36:16;16.75;;;7.07;;
55216;SDS011;41086;46.736;15.666;2023-02-22T10:38:56;18.00;;;8.20;;
55216;SDS011;41086;46.736;15.666;2023-02-22T10:44:00;13.60;;;7.65;;
55216;SDS011;41086;46.736;15.666;2023-02-22T10:46:28;11.15;;;7.00;;
55216;SDS011;41086;46.736;15.666;2023-02-22T10:48:59;14.15;;;7.45;;
55216;SDS011;41086;46.736;15.666;2023-02-22T10:51:29;13.23;;;8.27;;
55216;SDS011;41086;46.736;15.666;2023-02-22T10:54:16;13.45;;;7.80;;
55216;SDS011;41086;46.736;15.666;2023-02-22T10:56:53;15.27;;;8.60;;
55216;SDS011;41086;46.736;15.666;2023-02-22T10:59:40;15.50;;;8.05;;
55216;SDS011;41086;46.736;15.666;2023-02-22T11:02:17;13.30;;;7.70;;
55216;SDS011;41086;46.736;15.666;2023-02-22T11:04:47;11.10;;;7.35;;
55216;SDS011;41086;46.736;15.666;2023-02-22T11:07:27;23.25;;;12.18;;
55216;SDS011;41086;46.736;15.666;2023-02-22T11:09:57;19.90;;;9.35;;
55216;SDS011;41086;46.736;15.666;2023-02-22T11:12:35;14.80;;;8.63;;
55216;SDS011;41086;46.736;15.666;2023-02-22T11:17:48;16.23;;;10.80;;
55216;SDS011;41086;46.736;15.666;2023-02-22T11:20:24;18.80;;;11.02;;
55216;SDS011;41086;46.736;15.666;2023-02-22T11:23:01;15.65;;;9.32;;
55216;SDS011;41086;46.736;15.666;2023-02-22T11:25:30;14.70;;;9.55;;
55216;SDS011;41086;46.736;15.666;2023-02-22T11:28:05;16.00;;;10.00;;
55216;SDS011;41086;46.736;15.666;2023-02-22T11:30:35;20.10;;;10.73;;
55216;SDS011;41086;46.736;15.666;2023-02-22T11:35:48;13.68;;;7.20;;
55216;SDS011;41086;46.736;15.666;2023-02-22T11:38:19;23.02;;;12.38;;
55216;SDS011;41086;46.736;15.666;2023-02-22T11:43:43;16.20;;;10.32;;
55216;SDS011;41086;46.736;15.666;2023-02-22T11:46:19;19.42;;;10.90;;
55216;SDS011;41086;46.736;15.666;2023-02-22T11:48:57;21.52;;;11.13;;
55216;SDS011;41086;46.736;15.666;2023-02-22T11:51:33;17.92;;;11.80;;
55216;SDS011;41086;46.736;15.666;2023-02-22T11:59:57;18.60;;;11.18;;
55216;SDS011;41086;46.736;15.666;2023-02-22T12:05:47;18.88;;;9.65;;
55216;SDS011;41086;46.736;15.666;2023-02-22T12:14:24;23.02;;;12.70;;
55216;SDS011;41086;46.736;15.666;2023-02-22T12:19:49;20.10;;;11.93;;
55216;SDS011;41086;46.736;15.666;2023-02-22T12:22:22;22.38;;;12.15;;
55216;SDS011;41086;46.736;15.666;2023-02-22T12:24:57;21.42;;;12.98;;
55216;SDS011;41086;46.736;15.666;2023-02-22T12:27:54;21.73;;;11.52;;
55216;SDS011;41086;46.736;15.666;2023-02-22T12:30:36;22.83;;;12.98;;
55216;SDS011;41086;46.736;15.666;2023-02-22T12:33:20;27.08;;;14.50;;
55216;SDS011;41086;46.736;15.666;2023-02-22T12:35:52;22.65;;;14.02;;
55216;SDS011;41086;46.736;15.666;2023-02-22T12:38:41;23.38;;;12.60;;
55216;SDS011;41086;46.736;15.666;2023-02-22T12:44:25;27.02;;;13.68;;
55216;SDS011;41086;46.736;15.666;2023-02-22T12:46:56;22.20;;;12.25;;
55216;SDS011;41086;46.736;15.666;2023-02-22T12:57:50;25.30;;;13.75;;
55216;SDS011;41086;46.736;15.666;2023-02-22T13:00:42;27.40;;;14.80;;
55216;SDS011;41086;46.736;15.666;2023-02-22T13:05:58;27.02;;;14.70;;
55216;SDS011;41086;46.736;15.666;2023-02-22T13:08:44;22.02;;;13.77;;
55216;SDS011;41086;46.736;15.666;2023-02-22T13:11:58;24.67;;;13.80;;
55216;SDS011;41086;46.736;15.666;2023-02-22T13:14:37;30.48;;;15.30;;
55216;SDS011;41086;46.736;15.666;2023-02-22T13:17:14;32.60;;;14.77;;
55216;SDS011;41086;46.736;15.666;2023-02-22T13:20:02;30.92;;;16.92;;
55216;SDS011;41086;46.736;15.666;2023-02-22T13:25:50;28.70;;;15.88;;
55216;SDS011;41086;46.736;15.666;2023-02-22T13:36:10;25.80;;;16.40;;
55216;SDS011;41086;46.736;15.666;2023-02-22T13:44:23;26.42;;;15.27;;
55216;SDS011;41086;46.736;15.666;2023-02-22T13:47:22;26.98;;;16.08;;
55216;SDS011;41086;46.736;15.666;2023-02-22T13:52:54;29.95;;;17.08;;
55216;SDS011;41086;46.736;15.666;2023-02-22T13:55:27;29.02;;;15.07;;
55216;SDS011;41086;46.736;15.666;2023-02-22T13:58:05;37.55;;;18.08;;
55216;SDS011;41086;46.736;15.666;2023-02-22T14:00:44;28.20;;;16.13;;
55216;SDS011;41086;46.736;15.666;2023-02-22T14:11:04;26.67;;;14.70;;
55216;SDS011;41086;46.736;15.666;2023-02-22T14:14:08;28.52;;;17.75;;
55216;SDS011;41086;46.736;15.666;2023-02-22T14:16:36;28.33;;;18.05;;
55216;SDS011;41086;46.736;15.666;2023-02-22T14:19:04;28.48;;;18.23;;
55216;SDS011;41086;46.736;15.666;2023-02-22T14:21:55;29.80;;;19.02;;
55216;SDS011;41086;46.736;15.666;2023-02-22T14:24:40;28.25;;;17.98;;
55216;SDS011;41086;46.736;15.666;2023-02-22T14:27:10;29.42;;;17.98;;
55216;SDS011;41086;46.736;15.666;2023-02-22T14:29:37;29.90;;;19.20;;
55216;SDS011;41086;46.736;15.666;2023-02-22T14:32:16;27.05;;;17.10;;
55216;SDS011;41086;46.736;15.666;2023-02-22T14:34:45;32.90;;;17.95;;
55216;SDS011;41086;46.736;15.666;2023-02-22T14:37:19;27.90;;;17.15;;
55216;SDS011;41086;46.736;15.666;2023-02-22T14:42:40;27.67;;;17.15;;
55216;SDS011;41086;46.736;15.666;2023-02-22T14:45:16;27.58;;;16.08;;
55216;SDS011;41086;46.736;15.666;2023-02-22T14:48:03;30.83;;;17.50;;
55216;SDS011;41086;46.736;15.666;2023-02-22T14:50:53;30.17;;;17.38;;
55216;SDS011;41086;46.736;15.666;2023-02-22T15:01:43;30.15;;;17.08;;
55216;SDS011;41086;46.736;15.666;2023-02-22T15:04:34;30.17;;;16.92;;
55216;SDS011;41086;46.736;15.666;2023-02-22T15:07:13;35.35;;;17.25;;
55216;SDS011;41086;46.736;15.666;2023-02-22T15:09:46;32.17;;;16.65;;
55216;SDS011;41086;46.736;15.666;2023-02-22T15:12:25;28.23;;;15.18;;
55216;SDS011;41086;46.736;15.666;2023-02-22T15:15:16;31.25;;;16.40;;
55216;SDS011;41086;46.736;15.666;2023-02-22T15:17:53;27.40;;;15.25;;
55216;SDS011;41086;46.736;15.666;2023-02-22T15:20:22;39.53;;;23.73;;
55216;SDS011;41086;46.736;15.666;2023-02-22T15:22:51;24.90;;;14.80;;
55216;SDS011;41086;46.736;15.666;2023-02-22T15:25:26;27.00;;;15.57;;
55216;SDS011;41086;46.736;15.666;2023-02-22T15:27:59;24.23;;;14.50;;
55216;SDS011;41086;46.736;15.666;2023-02-22T15:30:30;23.17;;;14.05;;
55216;SDS011;41086;46.736;15.666;2023-02-22T15:33:15;24.50;;;14.60;;
55216;SDS011;41086;46.736;15.666;2023-02-22T15:35:55;27.33;;;16.70;;
55216;SDS011;41086;46.736;15.666;2023-02-22T15:38:27;30.83;;;15.88;;
55216;SDS011;41086;46.736;15.666;2023-02-22T15:40:58;22.17;;;14.05;;
55216;SDS011;41086;46.736;15.666;2023-02-22T15:43:29;23.80;;;15.45;;
55216;SDS011;41086;46.736;15.666;2023-02-22T15:45:58;30.45;;;16.25;;
55216;SDS011;41086;46.736;15.666;2023-02-22T15:48:26;29.55;;;16.10;;
55216;SDS011;41086;46.736;15.666;2023-02-22T15:56:07;33.55;;;19.50;;
55216;SDS011;41086;46.736;15.666;2023-02-22T15:58:37;34.58;;;19.75;;
55216;SDS011;41086;46.736;15.666;2023-02-22T16:01:08;30.80;;;17.80;;
55216;SDS011;41086;46.736;15.666;2023-02-22T16:03:41;39.92;;;21.02;;
55216;SDS011;41086;46.736;15.666;2023-02-22T16:06:15;32.30;;;18.27;;
55216;SDS011;41086;46.736;15.666;2023-02-22T16:08:54;35.00;;;18.25;;
55216;SDS011;41086;46.736;15.666;2023-02-22T16:11:28;32.17;;;17.85;;
55216;SDS011;41086;46.736;15.666;2023-02-22T16:14:01;30.38;;;17.80;;
55216;SDS011;41086;46.736;15.666;2023-02-22T16:16:34;27.80;;;17.33;;
55216;SDS011;41086;46.736;15.666;2023-02-22T16:19:24;28.95;;;17.92;;
55216;SDS011;41086;46.736;15.666;2023-02-22T16:21:55;31.42;;;17.08;;
55216;SDS011;41086;46.736;15.666;2023-02-22T16:24:33;29.60;;;16.58;;
55216;SDS011;41086;46.736;15.666;2023-02-22T16:29:41;31.70;;;16.67;;
55216;SDS011;41086;46.736;15.666;2023-02-22T16:34:35;24.85;;;14.70;;
55216;SDS011;41086;46.736;15.666;2023-02-22T16:37:01;27.80;;;15.18;;
55216;SDS011;41086;46.736;15.666;2023-02-22T16:39:29;28.15;;;16.67;;
55216;SDS011;41086;46.736;15.666;2023-02-22T16:42:00;29.60;;;16.50;;
55216;SDS011;41086;46.736;15.666;2023-02-22T16:44:31;28.10;;;16.63;;
55216;SDS011;41086;46.736;15.666;2023-02-22T16:47:00;29.10;;;16.77;;
55216;SDS011;41086;46.736;15.666;2023-02-22T16:49:28;47.67;;;28.77;;
55216;SDS011;41086;46.736;15.666;2023-02-22T16:54:26;26.20;;;15.57;;
55216;SDS011;41086;46.736;15.666;2023-02-22T16:57:19;27.42;;;15.25;;
55216;SDS011;41086;46.736;15.666;2023-02-22T16:59:49;25.63;;;14.90;;
55216;SDS011;41086;46.736;15.666;2023-02-22T17:02:21;27.55;;;13.20;;
55216;SDS011;41086;46.736;15.666;2023-02-22T17:04:48;21.50;;;13.32;;
55216;SDS011;41086;46.736;15.666;2023-02-22T17:07:19;28.85;;;13.55;;
55216;SDS011;41086;46.736;15.666;2023-02-22T17:09:56;21.38;;;12.65;;
55216;SDS011;41086;46.736;15.666;2023-02-22T17:12:28;20.15;;;12.13;;
55216;SDS011;41086;46.736;15.666;2023-02-22T17:14:57;20.95;;;12.52;;
55216;SDS011;41086;46.736;15.666;2023-02-22T17:17:24;26.80;;;13.40;;
55216;SDS011;41086;46.736;15.666;2023-02-22T17:19:52;23.42;;;13.13;;